Time;durP1;ratioP1;P1;durP2;ratioP2;P2;SDS_P1;SDS_P2;PMS_P1;PMS_P2;Temp;Humidity;BMP_temperature;BMP_pressure;BME280_temperature;BME280_humidity;BME280_pressure;Samples;Min_cycle;Max_cycle;Signal;HPM_P1;HPM_P2
2022/12/22 05:57:26;;;;;;;6.75;1.85;;;12.20;99.90;;;;;;5363901;23;20072;-81
2022/12/22 05:59:53;;;;;;;10.48;3.78;;;12.20;99.90;;;;;;4904676;29;20048;-80
2022/12/22 06:02:20;;;;;;;9.77;2.13;;;12.20;99.90;;;;;;4912777;29;20512;-81
2022/12/22 06:04:47;;;;;;;11.60;1.98;;;12.20;99.90;;;;;;4905753;29;20044;-81
2022/12/22 06:07:13;;;;;;;10.23;1.77;;;12.20;99.90;;;;;;4891837;29;20076;-81
2022/12/22 06:09:41;;;;;;;6.07;1.60;;;12.20;99.90;;;;;;4873814;29;20434;-79
2022/12/22 06:12:08;;;;;;;10.05;1.83;;;12.20;99.90;;;;;;4875048;29;20129;-81
2022/12/22 06:14:35;;;;;;;7.43;1.90;;;12.20;99.90;;;;;;4876555;29;20053;-79
2022/12/22 06:17:01;;;;;;;9.70;2.08;;;12.20;99.90;;;;;;4874781;29;20083;-81
2022/12/22 06:19:28;;;;;;;13.45;1.83;;;12.20;99.90;;;;;;4876398;29;20053;-80
2022/12/22 06:21:55;;;;;;;9.43;1.85;;;12.20;99.90;;;;;;4878586;29;20055;-81
2022/12/22 06:24:21;;;;;;;9.80;1.98;;;12.20;99.90;;;;;;4871070;29;20432;-81
2022/12/22 06:26:48;;;;;;;7.18;2.50;;;12.20;99.90;;;;;;4866141;29;20054;-82
2022/12/22 06:29:15;;;;;;;17.55;3.70;;;12.20;99.90;;;;;;4869349;29;20049;-81
2022/12/22 06:31:42;;;;;;;5.95;1.60;;;12.20;99.90;;;;;;4866912;29;20045;-80
2022/12/22 06:34:10;;;;;;;13.20;1.85;;;12.30;99.90;;;;;;4870921;29;20131;-79
2022/12/22 06:36:37;;;;;;;10.88;1.88;;;12.30;99.90;;;;;;4870434;29;20077;-79
2022/12/22 06:39:05;;;;;;;10.52;2.03;;;12.30;99.90;;;;;;4870072;29;20056;-80
2022/12/22 06:44:17;;;;;;;9.40;1.80;;;12.30;99.90;;;;;;4871877;29;20659;-81
2022/12/22 06:46:44;;;;;;;10.88;2.47;;;12.30;99.90;;;;;;4869662;29;20410;-79
2022/12/22 06:49:11;;;;;;;12.75;2.70;;;12.30;99.90;;;;;;4874523;29;20057;-79
2022/12/22 06:51:37;;;;;;;8.15;1.45;;;12.30;99.90;;;;;;4878306;29;20055;-79
2022/12/22 06:54:04;;;;;;;14.98;2.42;;;12.30;99.90;;;;;;4878908;29;20073;-81
2022/12/22 06:56:31;;;;;;;9.35;1.88;;;12.30;99.90;;;;;;4869691;29;20045;-80
2022/12/22 06:58:57;;;;;;;5.18;1.40;;;12.20;99.90;;;;;;4862636;29;20050;-80
2022/12/22 07:01:24;;;;;;;5.72;1.60;;;12.30;99.90;;;;;;4868537;29;20726;-80
2022/12/22 07:03:51;;;;;;;7.85;2.08;;;12.20;99.90;;;;;;4880220;29;20049;-79
2022/12/22 07:06:18;;;;;;;9.05;1.40;;;12.20;99.90;;;;;;4872830;29;20049;-79
2022/12/22 07:08:46;;;;;;;11.10;2.00;;;12.20;99.90;;;;;;4879620;29;20143;-80
2022/12/22 07:11:13;;;;;;;8.57;1.90;;;12.10;99.90;;;;;;4873499;29;20139;-81
2022/12/22 07:13:41;;;;;;;6.13;1.73;;;12.10;99.90;;;;;;4879127;29;20059;-80
2022/12/22 07:16:09;;;;;;;9.80;2.00;;;12.00;99.90;;;;;;4872884;29;20124;-81
2022/12/22 07:18:38;;;;;;;8.18;2.17;;;12.00;99.90;;;;;;4875527;29;20045;-81
2022/12/22 07:21:07;;;;;;;9.88;2.17;;;11.90;99.90;;;;;;4873606;29;20061;-79
2022/12/22 07:23:35;;;;;;;8.77;1.73;;;11.80;99.90;;;;;;4875109;29;20054;-81
2022/12/22 07:26:02;;;;;;;7.65;1.63;;;11.80;99.90;;;;;;4879297;29;20511;-81
2022/12/22 07:28:32;;;;;;;10.65;1.85;;;11.70;99.90;;;;;;4873015;29;20107;-81
2022/12/22 07:30:59;;;;;;;8.93;1.73;;;11.70;99.90;;;;;;4875340;29;20041;-81
2022/12/22 07:33:26;;;;;;;6.88;1.67;;;11.60;99.90;;;;;;4874134;29;20109;-81
2022/12/22 07:36:03;;;;;;;10.00;1.55;;;11.60;99.90;;;;;;4873319;29;20041;-81
2022/12/22 07:38:34;;;;;;;8.63;1.67;;;11.60;99.90;;;;;;4875326;29;20134;-81
2022/12/22 07:41:01;;;;;;;11.07;2.03;;;11.60;99.90;;;;;;4882703;29;20511;-81
2022/12/22 07:43:31;;;;;;;6.13;1.85;;;11.60;99.90;;;;;;4873207;29;20109;-81
2022/12/22 07:45:57;;;;;;;10.93;2.10;;;11.60;99.90;;;;;;4879553;29;20049;-81
2022/12/22 07:51:10;;;;;;;9.90;2.13;;;11.60;99.90;;;;;;4878380;29;20049;-81
2022/12/22 07:53:38;;;;;;;13.52;1.95;;;11.60;99.90;;;;;;4884125;29;20136;-80
2022/12/22 07:56:05;;;;;;;9.20;1.77;;;11.60;99.90;;;;;;4882798;29;20074;-81
2022/12/22 07:58:32;;;;;;;10.93;2.00;;;11.60;99.90;;;;;;4875873;29;20135;-81
2022/12/22 08:01:00;;;;;;;13.95;2.22;;;11.60;99.90;;;;;;4875405;29;20048;-81
2022/12/22 08:03:27;;;;;;;9.95;1.90;;;11.50;99.90;;;;;;4876301;29;20054;-79
2022/12/22 08:05:54;;;;;;;7.78;2.30;;;11.50;99.90;;;;;;4883842;29;20053;-81
2022/12/22 08:08:21;;;;;;;12.73;1.92;;;11.50;99.90;;;;;;4873059;29;20055;-81
2022/12/22 08:10:48;;;;;;;9.90;2.55;;;11.50;99.90;;;;;;4879643;29;20054;-80
2022/12/22 08:13:15;;;;;;;14.90;2.45;;;11.50;99.90;;;;;;4870474;29;20132;-81
2022/12/22 08:15:41;;;;;;;13.85;2.40;;;11.40;99.90;;;;;;4877212;29;20120;-81
2022/12/22 08:18:08;;;;;;;11.23;1.88;;;11.40;99.90;;;;;;4872733;29;20049;-81
2022/12/22 08:20:35;;;;;;;9.70;1.77;;;11.40;99.90;;;;;;4874691;29;20147;-81
2022/12/22 08:23:01;;;;;;;13.07;3.17;;;11.40;99.90;;;;;;4873103;29;20057;-81
2022/12/22 08:25:30;;;;;;;9.23;2.97;;;11.40;99.90;;;;;;4878326;29;20053;-81
2022/12/22 08:27:58;;;;;;;8.10;2.00;;;11.40;99.90;;;;;;4876261;29;20053;-80
2022/12/22 08:30:25;;;;;;;11.00;1.85;;;11.40;99.90;;;;;;4872283;29;20048;-79
2022/12/22 08:32:52;;;;;;;10.88;2.33;;;11.40;99.90;;;;;;4880604;29;20045;-79
2022/12/22 08:35:19;;;;;;;10.30;2.40;;;11.40;99.90;;;;;;4878026;29;20323;-81
2022/12/22 08:37:47;;;;;;;11.73;2.47;;;11.40;99.90;;;;;;4875536;29;20049;-80
2022/12/22 08:40:20;;;;;;;8.95;2.40;;;11.40;99.90;;;;;;4872991;29;20094;-81
2022/12/22 08:42:48;;;;;;;9.38;2.22;;;11.40;99.90;;;;;;4872942;29;20049;-80
2022/12/22 08:45:15;;;;;;;10.98;2.17;;;11.40;99.90;;;;;;4870063;29;20049;-81
2022/12/22 08:47:42;;;;;;;8.32;2.13;;;11.40;99.90;;;;;;4878052;29;20060;-80
2022/12/22 08:50:09;;;;;;;12.82;2.28;;;11.40;99.90;;;;;;4865447;29;20064;-81
2022/12/22 08:52:36;;;;;;;15.07;2.78;;;11.40;99.90;;;;;;4865040;29;20107;-81
2022/12/22 08:55:02;;;;;;;8.50;2.40;;;11.50;99.90;;;;;;4869225;29;20060;-81
2022/12/22 08:57:29;;;;;;;12.95;3.22;;;11.50;99.90;;;;;;4871263;29;20144;-81
2022/12/22 08:59:56;;;;;;;11.02;2.38;;;11.40;99.90;;;;;;4883788;29;20075;-81
2022/12/22 09:02:23;;;;;;;13.27;3.50;;;11.40;99.90;;;;;;4871031;29;20050;-81
2022/12/22 09:04:50;;;;;;;14.38;3.20;;;11.40;99.90;;;;;;4873141;29;20105;-81
2022/12/22 09:07:17;;;;;;;12.60;2.25;;;11.40;99.90;;;;;;4871141;29;20059;-81
2022/12/22 09:09:44;;;;;;;17.45;2.88;;;11.40;99.90;;;;;;4871266;29;20049;-81
2022/12/22 09:12:11;;;;;;;10.88;2.60;;;11.50;99.90;;;;;;4876334;29;20052;-81
2022/12/22 09:14:37;;;;;;;10.75;1.98;;;11.60;99.90;;;;;;4872463;29;20126;-81
2022/12/22 09:17:04;;;;;;;13.07;2.33;;;11.60;99.90;;;;;;4872377;29;20484;-80
2022/12/22 09:19:31;;;;;;;18.58;3.83;;;11.70;99.90;;;;;;4872030;29;20514;-81
2022/12/22 09:21:58;;;;;;;16.70;3.45;;;11.70;99.90;;;;;;4873649;29;20054;-81
2022/12/22 09:24:25;;;;;;;9.65;2.63;;;11.80;99.90;;;;;;4868384;29;20132;-80
2022/12/22 09:26:51;;;;;;;11.50;2.70;;;11.80;99.90;;;;;;4873629;29;20128;-82
2022/12/22 09:29:18;;;;;;;14.15;2.78;;;11.90;99.90;;;;;;4867828;29;20488;-82
2022/12/22 09:31:45;;;;;;;15.27;2.80;;;11.90;99.90;;;;;;4873281;29;20064;-82
2022/12/22 09:34:12;;;;;;;13.57;3.00;;;12.00;99.90;;;;;;4877517;29;20054;-82
2022/12/22 09:36:45;;;;;;;13.48;2.47;;;12.00;99.90;;;;;;4869900;29;20057;-82
2022/12/22 09:39:12;;;;;;;16.55;3.17;;;12.10;99.90;;;;;;4880569;29;20057;-82
2022/12/22 09:41:50;;;;;;;13.82;3.15;;;12.10;99.90;;;;;;4876418;29;20053;-81
2022/12/22 09:44:26;;;;;;;13.50;2.78;;;12.10;99.90;;;;;;4869199;29;20058;-82
2022/12/22 09:46:56;;;;;;;18.10;3.42;;;12.10;99.90;;;;;;4875808;29;20135;-81
2022/12/22 09:49:23;;;;;;;14.77;3.33;;;12.20;99.90;;;;;;4873119;29;20068;-82
2022/12/22 09:51:56;;;;;;;14.35;2.53;;;12.20;99.90;;;;;;4875744;29;20053;-81
2022/12/22 09:54:24;;;;;;;19.27;3.78;;;12.20;99.90;;;;;;4882484;29;20060;-82
2022/12/22 09:56:51;;;;;;;13.82;2.72;;;12.30;99.90;;;;;;4874311;29;20045;-80
2022/12/22 09:59:20;;;;;;;21.15;4.00;;;12.30;99.90;;;;;;4871850;29;20144;-80
2022/12/22 10:02:03;;;;;;;11.07;3.08;;;12.30;99.90;;;;;;4876514;29;20064;-81
2022/12/22 10:04:48;;;;;;;18.42;2.92;;;12.30;99.90;;;;;;4871042;29;20049;-81
2022/12/22 10:07:28;;;;;;;16.73;3.03;;;12.40;99.90;;;;;;4869435;29;20174;-81
2022/12/22 10:09:55;;;;;;;15.77;2.35;;;12.30;99.90;;;;;;4870642;29;20434;-81
2022/12/22 10:12:24;;;;;;;16.45;2.83;;;12.40;99.90;;;;;;4875418;29;20092;-81
2022/12/22 10:14:53;;;;;;;17.10;2.92;;;12.40;99.90;;;;;;4869812;29;20077;-81
2022/12/22 10:17:30;;;;;;;13.23;2.88;;;12.40;99.90;;;;;;4867803;29;20057;-81
2022/12/22 10:20:19;;;;;;;14.73;4.47;;;12.40;99.90;;;;;;4870265;29;20050;-81
2022/12/22 10:22:57;;;;;;;11.02;3.60;;;12.40;99.90;;;;;;4868897;29;20054;-80
2022/12/22 10:25:32;;;;;;;12.73;3.30;;;12.40;99.90;;;;;;4872672;29;20112;-80
2022/12/22 10:28:26;;;;;;;13.43;2.40;;;12.40;99.90;;;;;;4869624;29;20468;-80
2022/12/22 10:31:16;;;;;;;11.48;2.00;;;12.40;99.90;;;;;;4874531;29;20059;-81
2022/12/22 10:33:45;;;;;;;11.68;2.53;;;12.50;99.90;;;;;;4871188;29;20050;-80
2022/12/22 10:36:26;;;;;;;11.13;2.15;;;12.50;99.90;;;;;;4873403;29;20657;-81
2022/12/22 10:39:08;;;;;;;11.00;2.08;;;12.50;99.90;;;;;;4876035;29;20074;-81
2022/12/22 10:41:45;;;;;;;13.35;1.90;;;12.50;99.90;;;;;;4872838;29;20081;-83
2022/12/22 10:44:15;;;;;;;8.48;2.20;;;12.40;99.90;;;;;;4877902;29;20456;-82
2022/12/22 10:46:54;;;;;;;9.70;1.37;;;12.40;99.90;;;;;;4883323;29;20060;-80
2022/12/22 10:49:25;;;;;;;12.90;2.25;;;12.30;99.90;;;;;;4880317;29;20669;-80
2022/12/22 10:51:55;;;;;;;8.90;2.20;;;12.40;99.90;;;;;;4874453;29;20111;-80
2022/12/22 10:54:34;;;;;;;10.88;2.40;;;12.40;99.90;;;;;;4872650;29;20132;-82
2022/12/22 10:57:06;;;;;;;15.02;2.17;;;12.40;99.90;;;;;;4876346;29;20060;-82
2022/12/22 10:59:45;;;;;;;13.20;1.95;;;12.40;99.90;;;;;;4871256;29;20052;-82
2022/12/22 11:02:25;;;;;;;9.85;2.20;;;12.40;99.90;;;;;;4869741;29;20519;-81
2022/12/22 11:04:59;;;;;;;12.02;2.22;;;12.40;99.90;;;;;;4882694;29;20091;-82
2022/12/22 11:07:29;;;;;;;12.73;2.58;;;12.40;99.90;;;;;;4880161;29;20152;-81
2022/12/22 11:09:55;;;;;;;12.48;2.63;;;12.40;99.90;;;;;;4882931;29;20059;-80
2022/12/22 11:12:29;;;;;;;19.38;3.35;;;12.40;99.90;;;;;;4879212;29;20124;-82
2022/12/22 11:15:01;;;;;;;10.45;2.53;;;12.40;99.90;;;;;;4871035;29;20657;-82
2022/12/22 11:17:52;;;;;;;12.68;2.63;;;12.50;99.90;;;;;;4877556;29;20132;-82
2022/12/22 11:21:02;;;;;;;18.42;3.03;;;12.50;99.90;;;;;;4872185;29;20057;-82
2022/12/22 11:23:51;;;;;;;13.07;3.00;;;12.60;99.90;;;;;;4878408;29;20161;-81
2022/12/22 11:26:44;;;;;;;13.35;3.22;;;12.60;99.90;;;;;;4877349;29;20144;-82
2022/12/22 11:29:33;;;;;;;20.20;4.38;;;12.60;99.90;;;;;;4878176;29;20057;-82
2022/12/22 11:32:26;;;;;;;18.95;3.28;;;12.60;99.90;;;;;;4871654;29;20045;-79
2022/12/22 11:35:11;;;;;;;18.85;3.28;;;12.70;99.90;;;;;;4875052;29;20135;-80
2022/12/22 11:37:57;;;;;;;22.42;4.80;;;12.80;99.90;;;;;;4875212;29;20069;-81
2022/12/22 11:40:38;;;;;;;17.00;4.38;;;12.90;99.90;;;;;;4874844;29;20053;-81
2022/12/22 11:43:38;;;;;;;20.95;3.30;;;13.00;99.90;;;;;;4886738;29;20049;-81
2022/12/22 11:46:34;;;;;;;16.55;3.40;;;13.00;99.90;;;;;;4871953;29;20547;-81
2022/12/22 11:49:10;;;;;;;20.30;3.42;;;13.00;99.90;;;;;;4873325;29;20132;-81
2022/12/22 11:51:55;;;;;;;15.50;2.95;;;13.00;99.90;;;;;;4879945;29;20495;-81
2022/12/22 11:54:58;;;;;;;12.00;2.92;;;13.00;99.90;;;;;;4889901;29;20178;-81
2022/12/22 11:57:44;;;;;;;19.08;3.15;;;12.90;99.90;;;;;;4871507;29;20416;-81
2022/12/22 12:00:14;;;;;;;17.38;3.67;;;12.80;99.90;;;;;;4880019;29;20053;-81
2022/12/22 12:02:40;;;;;;;12.63;3.15;;;12.80;99.90;;;;;;4880611;29;20088;-80
2022/12/22 12:05:23;;;;;;;19.30;3.63;;;12.80;99.90;;;;;;4878621;29;20041;-81
2022/12/22 12:07:53;;;;;;;13.43;2.85;;;12.70;99.90;;;;;;4879427;29;20063;-81
2022/12/22 12:10:27;;;;;;;17.27;3.78;;;12.70;99.90;;;;;;4877537;29;20399;-81
2022/12/22 12:12:57;;;;;;;14.65;3.83;;;12.60;99.90;;;;;;4868610;29;20054;-80
2022/12/22 12:15:37;;;;;;;16.73;3.25;;;12.60;99.90;;;;;;4875587;29;20076;-81
2022/12/22 12:18:22;;;;;;;;;;;12.60;99.90;;;;;;4878207;29;20041;-79
2022/12/22 12:21:16;;;;;;;16.45;2.95;;;12.60;99.90;;;;;;4887111;29;19967;-81
2022/12/22 12:24:07;;;;;;;15.93;2.97;;;12.70;99.90;;;;;;4874145;29;20057;-81
2022/12/22 12:26:39;;;;;;;11.77;3.05;;;12.70;99.90;;;;;;4873946;29;20085;-81
2022/12/22 12:29:20;;;;;;;23.27;3.63;;;12.60;99.90;;;;;;4876174;29;20049;-81
2022/12/22 12:31:54;;;;;;;17.02;4.60;;;12.60;99.90;;;;;;4873699;29;20049;-81
2022/12/22 12:34:21;;;;;;;16.02;3.28;;;12.60;99.90;;;;;;4878231;29;20072;-81
2022/12/22 12:37:11;;;;;;;21.55;4.55;;;12.60;99.90;;;;;;4872110;29;20056;-81
2022/12/22 12:40:16;;;;;;;21.05;4.18;;;12.60;99.90;;;;;;4880158;29;20140;-81
2022/12/22 12:42:45;;;;;;;20.63;4.57;;;12.50;99.90;;;;;;4873168;29;20591;-81
2022/12/22 12:45:40;;;;;;;19.52;3.40;;;12.50;99.90;;;;;;4879401;29;20502;-80
2022/12/22 12:48:35;;;;;;;19.67;3.33;;;12.50;99.90;;;;;;4875661;29;20049;-81
2022/12/22 12:51:54;;;;;;;14.60;3.15;;;12.50;99.90;;;;;;4878645;29;20104;-81
2022/12/22 12:54:37;;;;;;;15.23;3.55;;;12.50;99.90;;;;;;4853841;29;20045;-82
2022/12/22 12:57:23;;;;;;;13.70;3.22;;;12.50;99.90;;;;;;4874231;29;20079;-81
2022/12/22 12:59:52;;;;;;;17.50;4.45;;;12.50;99.90;;;;;;4874757;29;20073;-81
2022/12/22 13:02:32;;;;;;;18.08;2.72;;;12.40;99.90;;;;;;4872635;29;20053;-81
2022/12/22 13:05:01;;;;;;;20.38;3.60;;;12.40;99.90;;;;;;4876796;29;20556;-80
2022/12/22 13:08:10;;;;;;;30.93;4.37;;;12.40;99.90;;;;;;4872434;29;20132;-81
2022/12/22 13:10:44;;;;;;;18.35;3.90;;;12.40;99.90;;;;;;4858497;29;20754;-78
2022/12/22 13:13:32;;;;;;;20.00;3.10;;;12.40;99.90;;;;;;4886660;29;20480;-80
2022/12/22 13:15:59;;;;;;;14.45;3.80;;;12.40;99.90;;;;;;4866724;29;20072;-80
2022/12/22 13:18:28;;;;;;;22.60;3.83;;;12.40;99.90;;;;;;4872840;29;20519;-81
2022/12/22 13:21:25;;;;;;;18.87;3.60;;;12.40;99.90;;;;;;4877050;29;21081;-80
2022/12/22 13:24:28;;;;;;;17.30;3.65;;;12.40;99.90;;;;;;4875765;29;20101;-80
2022/12/22 13:27:01;;;;;;;19.40;3.88;;;12.40;99.90;;;;;;4873267;29;20061;-81
2022/12/22 13:29:46;;;;;;;12.80;2.90;;;12.50;99.90;;;;;;4875437;29;20279;-81
2022/12/22 13:32:22;;;;;;;16.58;3.28;;;12.50;99.90;;;;;;4879035;29;20049;-80
2022/12/22 13:34:55;;;;;;;18.60;4.05;;;12.50;99.90;;;;;;4870498;29;20634;-81
2022/12/22 13:37:48;;;;;;;21.58;3.78;;;12.50;99.90;;;;;;4877778;29;20053;-79
2022/12/22 13:40:20;;;;;;;14.70;3.67;;;12.50;99.90;;;;;;4870697;29;20105;-80
2022/12/22 13:43:04;;;;;;;20.45;4.07;;;12.50;99.90;;;;;;4875925;29;20529;-78
2022/12/22 13:45:45;;;;;;;16.23;3.78;;;12.60;99.90;;;;;;4869146;29;20048;-80
2022/12/22 13:48:23;;;;;;;13.75;3.35;;;12.60;99.90;;;;;;4870840;29;20053;-79
2022/12/22 13:50:53;;;;;;;18.33;3.25;;;12.70;99.90;;;;;;4871018;29;20053;-80
2022/12/22 13:53:26;;;;;;;;;;;12.70;99.90;;;;;;4873437;29;20101;-80
2022/12/22 13:56:34;;;;;;;20.20;4.65;;;12.60;99.90;;;;;;4870574;29;19946;-81
2022/12/22 13:59:02;;;;;;;20.55;3.92;;;12.70;99.90;;;;;;4873509;29;20060;-80
2022/12/22 14:01:29;;;;;;;17.05;3.90;;;12.70;99.90;;;;;;4871714;29;20143;-81
2022/12/22 14:04:02;;;;;;;20.33;3.90;;;12.70;99.90;;;;;;4878962;29;20136;-80
2022/12/22 14:06:39;;;;;;;24.63;4.00;;;12.70;99.90;;;;;;4875086;29;20180;-80
2022/12/22 14:09:13;;;;;;;17.05;3.80;;;12.70;99.90;;;;;;4868368;29;20143;-80
2022/12/22 14:11:43;;;;;;;16.63;4.60;;;12.70;99.90;;;;;;4874895;29;20049;-80
2022/12/22 14:14:21;;;;;;;16.45;3.33;;;12.70;99.90;;;;;;4873991;29;20051;-80
2022/12/22 14:16:50;;;;;;;14.70;3.03;;;12.70;99.90;;;;;;4875655;29;20045;-80
2022/12/22 14:19:19;;;;;;;21.17;3.72;;;12.80;99.90;;;;;;4874671;29;20045;-80
2022/12/22 14:22:08;;;;;;;17.10;3.65;;;12.70;99.90;;;;;;4888169;29;20083;-80
2022/12/22 14:24:42;;;;;;;18.20;4.47;;;12.80;99.90;;;;;;4876346;29;20144;-80
2022/12/22 14:27:28;;;;;;;23.92;5.25;;;12.70;99.90;;;;;;4878292;29;20116;-80
2022/12/22 14:29:56;;;;;;;15.98;3.65;;;12.70;99.90;;;;;;4868349;29;20069;-80
2022/12/22 14:32:38;;;;;;;16.38;4.25;;;12.70;99.90;;;;;;4877164;29;20070;-80
2022/12/22 14:35:34;;;;;;;18.45;3.85;;;12.80;99.90;;;;;;4878121;29;20056;-80
2022/12/22 14:38:01;;;;;;;13.20;2.95;;;12.80;99.90;;;;;;4860881;29;20427;-81
2022/12/22 14:40:32;;;;;;;19.35;3.22;;;12.80;99.90;;;;;;4869536;29;20132;-80
2022/12/22 14:43:01;;;;;;;16.33;3.85;;;12.80;99.90;;;;;;4872577;29;20077;-80
2022/12/22 14:45:28;;;;;;;14.70;3.30;;;12.70;99.90;;;;;;4871150;29;20393;-80
2022/12/22 14:47:56;;;;;;;14.68;3.15;;;12.70;99.90;;;;;;4867535;29;20426;-80
2022/12/22 14:50:27;;;;;;;18.20;3.95;;;12.70;99.90;;;;;;4868751;29;20053;-80
2022/12/22 14:53:00;;;;;;;10.73;3.03;;;12.70;99.90;;;;;;4871294;29;20081;-80
2022/12/22 14:55:39;;;;;;;14.40;3.50;;;12.70;99.90;;;;;;4868398;29;20448;-80
2022/12/22 14:58:09;;;;;;;16.33;3.25;;;12.70;99.90;;;;;;4876648;29;20045;-80
2022/12/22 15:00:39;;;;;;;12.55;3.00;;;12.70;99.90;;;;;;4886183;29;20084;-80
2022/12/22 15:03:32;;;;;;;14.38;4.10;;;12.70;99.90;;;;;;4877054;29;20050;-81
2022/12/22 15:06:20;;;;;;;10.50;2.92;;;12.70;99.90;;;;;;4873535;29;20183;-81
2022/12/22 15:08:48;;;;;;;16.50;4.15;;;12.60;99.90;;;;;;4874507;29;20084;-80
2022/12/22 15:11:17;;;;;;;12.55;3.20;;;12.60;99.90;;;;;;4869891;29;20081;-80
2022/12/22 15:13:45;;;;;;;12.82;2.42;;;12.60;99.90;;;;;;4873269;29;20106;-81
2022/12/22 15:16:15;;;;;;;17.50;2.60;;;12.60;99.90;;;;;;4866084;29;20050;-81
2022/12/22 15:18:42;;;;;;;17.80;3.85;;;12.60;99.90;;;;;;4871288;29;20594;-82
2022/12/22 15:21:13;;;;;;;14.18;2.83;;;12.60;99.90;;;;;;4869444;29;20109;-81
2022/12/22 15:23:39;;;;;;;;;;;12.50;99.90;;;;;;4880551;29;20078;-80
2022/12/22 15:26:07;;;;;;;14.20;2.80;;;12.50;99.90;;;;;;4886928;29;20374;-81
2022/12/22 15:28:33;;;;;;;16.92;2.92;;;12.50;99.90;;;;;;4884253;29;20132;-81
2022/12/22 15:31:02;;;;;;;18.13;3.60;;;12.50;99.90;;;;;;4886120;29;20124;-81
2022/12/22 15:33:29;;;;;;;14.25;2.80;;;12.40;99.90;;;;;;4875528;29;20579;-81
2022/12/22 15:35:56;;;;;;;15.18;2.80;;;12.50;99.90;;;;;;4878893;29;20613;-81
2022/12/22 15:38:24;;;;;;;16.02;3.35;;;12.50;99.90;;;;;;4879020;29;20125;-81
2022/12/22 15:40:51;;;;;;;15.07;3.20;;;12.50;99.90;;;;;;4875224;29;20048;-81
2022/12/22 15:43:18;;;;;;;11.35;2.80;;;12.40;99.90;;;;;;4878081;29;20045;-80
2022/12/22 15:46:05;;;;;;;16.27;3.03;;;12.40;99.90;;;;;;4873129;29;20053;-81
2022/12/22 15:48:35;;;;;;;15.60;2.92;;;12.40;99.90;;;;;;4879936;29;20064;-81
2022/12/22 15:51:03;;;;;;;18.77;3.72;;;12.40;99.90;;;;;;4877011;29;20101;-81
2022/12/22 15:53:32;;;;;;;18.10;3.00;;;12.40;99.90;;;;;;4880219;29;20227;-80
2022/12/22 15:56:00;;;;;;;12.85;2.38;;;12.40;99.90;;;;;;4878752;29;20061;-81
2022/12/22 15:58:31;;;;;;;8.35;2.10;;;12.40;99.90;;;;;;4874463;29;20045;-81
2022/12/22 16:00:58;;;;;;;17.45;3.60;;;12.40;99.90;;;;;;4874598;29;20052;-81
2022/12/22 16:03:24;;;;;;;13.23;2.83;;;12.40;99.90;;;;;;4877706;29;20121;-81
2022/12/22 16:05:53;;;;;;;14.43;2.47;;;12.40;99.90;;;;;;4877489;29;20053;-81
2022/12/22 16:08:26;;;;;;;16.17;2.90;;;12.40;99.90;;;;;;4872103;29;20082;-81
2022/12/22 16:10:52;;;;;;;12.20;2.15;;;12.50;99.90;;;;;;4870629;29;20114;-81
2022/12/22 16:13:25;;;;;;;14.63;2.88;;;12.40;99.90;;;;;;4880048;29;20467;-81
2022/12/22 16:15:52;;;;;;;16.17;3.45;;;12.50;99.90;;;;;;4875712;29;20078;-80
2022/12/22 16:18:20;;;;;;;14.38;2.95;;;12.50;99.90;;;;;;4877117;29;20060;-81
2022/12/22 16:20:49;;;;;;;16.95;3.20;;;12.50;99.90;;;;;;4878741;29;20571;-81
2022/12/22 16:23:18;;;;;;;11.30;3.00;;;12.50;99.90;;;;;;4879707;29;20049;-81
2022/12/22 16:25:46;;;;;;;14.73;2.35;;;12.50;99.90;;;;;;4883262;29;20547;-81
2022/12/22 16:28:17;;;;;;;15.00;3.47;;;12.40;99.90;;;;;;4880456;29;20059;-81
2022/12/22 16:30:44;;;;;;;13.80;3.22;;;12.50;99.90;;;;;;4877956;29;20082;-80
2022/12/22 16:33:12;;;;;;;12.18;2.60;;;12.50;99.90;;;;;;4884894;29;20049;-78
2022/12/22 16:35:39;;;;;;;21.75;2.83;;;12.50;99.90;;;;;;4884727;29;20144;-80
2022/12/22 16:38:06;;;;;;;13.20;2.97;;;12.50;99.90;;;;;;4881592;29;20049;-81
2022/12/22 16:40:43;;;;;;;9.75;2.50;;;12.50;99.90;;;;;;4880667;29;20144;-81
2022/12/22 16:43:29;;;;;;;17.02;2.95;;;12.50;99.90;;;;;;4873893;29;20052;-81
2022/12/22 16:46:16;;;;;;;12.98;2.80;;;12.50;99.90;;;;;;4876710;29;20048;-81
2022/12/22 16:48:52;;;;;;;12.80;2.75;;;12.50;99.90;;;;;;4875421;29;20060;-78
2022/12/22 16:51:32;;;;;;;13.25;2.22;;;12.40;99.90;;;;;;4872738;29;20136;-81
2022/12/22 16:54:00;;;;;;;12.30;2.45;;;12.40;99.90;;;;;;4877183;29;20082;-81
2022/12/22 16:56:29;;;;;;;13.98;2.42;;;12.40;99.90;;;;;;4876666;29;20166;-80
2022/12/22 16:58:56;;;;;;;12.73;2.40;;;12.40;99.90;;;;;;4874784;29;20095;-80
2022/12/22 17:02:05;;;;;;;9.40;2.10;;;12.30;99.90;;;;;;4878766;29;20041;-79
2022/12/22 17:04:32;;;;;;;13.52;3.25;;;12.30;99.90;;;;;;4820591;29;20058;-78
2022/12/22 17:07:00;;;;;;;10.88;2.38;;;12.30;99.90;;;;;;4821809;29;20138;-79
2022/12/22 17:09:36;;;;;;;7.88;2.40;;;12.30;99.90;;;;;;4845937;29;20415;-80
2022/12/22 17:12:03;;;;;;;9.38;2.15;;;12.30;99.90;;;;;;4876353;29;20491;-83
2022/12/22 17:14:36;;;;;;;9.10;2.38;;;12.20;99.90;;;;;;4872198;29;20087;-83
2022/12/22 17:17:02;;;;;;;11.57;2.38;;;12.20;99.90;;;;;;4874122;29;20077;-82
2022/12/22 17:19:29;;;;;;;11.55;3.13;;;12.20;99.90;;;;;;4877657;29;20136;-81
2022/12/22 17:21:57;;;;;;;10.35;2.00;;;12.10;99.90;;;;;;4870814;29;20055;-82
2022/12/22 17:24:26;;;;;;;10.18;2.13;;;12.10;99.90;;;;;;4878907;29;20051;-81
2022/12/22 17:27:05;;;;;;;14.05;2.67;;;12.10;99.90;;;;;;4880778;29;20061;-81
2022/12/22 17:29:33;;;;;;;9.07;1.60;;;12.00;99.90;;;;;;4875546;29;20057;-82
2022/12/22 17:32:00;;;;;;;9.15;2.13;;;12.00;99.90;;;;;;4871656;29;20505;-81
2022/12/22 17:34:27;;;;;;;8.73;1.98;;;12.00;99.90;;;;;;4873826;29;20056;-81
2022/12/22 17:36:55;;;;;;;13.35;2.65;;;12.00;99.90;;;;;;4873915;29;20055;-81
2022/12/22 17:39:22;;;;;;;7.25;1.80;;;12.00;99.90;;;;;;4871981;29;20045;-82
2022/12/22 17:41:49;;;;;;;8.40;2.60;;;12.00;99.90;;;;;;4869759;29;20091;-81
2022/12/22 17:44:23;;;;;;;7.60;2.40;;;12.00;99.90;;;;;;4872806;29;20049;-82
2022/12/22 17:46:50;;;;;;;13.60;1.88;;;12.00;99.90;;;;;;4872893;29;20053;-81
2022/12/22 17:49:20;;;;;;;10.02;1.70;;;12.00;99.90;;;;;;4872250;29;20531;-82
2022/12/22 17:51:48;;;;;;;13.85;2.30;;;12.00;99.90;;;;;;4876790;29;20136;-82
2022/12/22 17:54:24;;;;;;;9.40;2.13;;;12.10;99.90;;;;;;4875175;29;20045;-82
2022/12/22 17:56:57;;;;;;;12.30;2.00;;;12.00;99.90;;;;;;4874935;29;20053;-81
2022/12/22 17:59:24;;;;;;;11.55;2.28;;;12.10;99.90;;;;;;4868155;29;20048;-81
2022/12/22 18:01:51;;;;;;;9.32;2.40;;;12.10;99.90;;;;;;4873916;29;20047;-82
2022/12/22 18:04:17;;;;;;;12.48;2.22;;;12.10;99.90;;;;;;4865716;29;20084;-81
2022/12/22 18:06:44;;;;;;;7.28;1.80;;;12.10;99.90;;;;;;4870110;29;20049;-81
2022/12/22 18:09:21;;;;;;;11.77;2.30;;;12.10;99.90;;;;;;4875657;29;20175;-82
2022/12/22 18:11:49;;;;;;;9.45;2.00;;;12.10;99.90;;;;;;4872541;29;20480;-82
2022/12/22 18:14:17;;;;;;;9.15;2.72;;;12.10;99.90;;;;;;4873888;29;20056;-82
2022/12/22 18:16:43;;;;;;;10.73;2.45;;;12.20;99.90;;;;;;4873209;29;20049;-79
2022/12/22 18:19:10;;;;;;;7.25;2.22;;;12.20;99.90;;;;;;4874367;29;20100;-82
2022/12/22 18:21:37;;;;;;;7.97;2.40;;;12.10;99.90;;;;;;4872599;29;20457;-81
2022/12/22 18:24:04;;;;;;;11.27;1.98;;;12.20;99.90;;;;;;4872252;29;20079;-80
2022/12/22 18:26:31;;;;;;;9.77;1.98;;;12.20;99.90;;;;;;4874866;29;20092;-81
2022/12/22 18:28:58;;;;;;;9.18;2.30;;;12.30;99.90;;;;;;4876386;29;20049;-81
2022/12/22 18:31:25;;;;;;;11.25;1.90;;;12.30;99.90;;;;;;4871852;29;20049;-80
2022/12/22 18:33:52;;;;;;;9.05;2.15;;;12.30;99.90;;;;;;4872992;29;20053;-79
2022/12/22 18:36:22;;;;;;;7.07;1.65;;;12.30;99.90;;;;;;4880342;29;20057;-81
2022/12/22 18:38:49;;;;;;;14.00;2.28;;;12.30;99.90;;;;;;4901406;29;20056;-81
2022/12/22 18:41:21;;;;;;;10.75;2.20;;;12.30;99.90;;;;;;4896967;29;20097;-81
2022/12/22 18:43:49;;;;;;;12.23;2.40;;;12.30;99.90;;;;;;4884803;29;20050;-81
2022/12/22 18:46:16;;;;;;;8.00;2.30;;;12.30;99.90;;;;;;4890157;29;20097;-80
2022/12/22 18:48:44;;;;;;;11.52;2.65;;;12.30;99.90;;;;;;4883227;29;20116;-81
2022/12/22 18:51:19;;;;;;;8.93;2.28;;;12.20;99.90;;;;;;4875328;29;20059;-80
2022/12/22 18:53:50;;;;;;;13.43;3.22;;;12.30;99.90;;;;;;4891000;29;20049;-81
2022/12/22 18:56:17;;;;;;;;;;;12.20;99.90;;;;;;4873085;29;20049;-81
2022/12/22 18:58:44;;;;;;;14.68;2.97;;;12.20;99.90;;;;;;4878905;29;19972;-81
2022/12/22 19:01:25;;;;;;;11.52;2.15;;;12.10;99.90;;;;;;4874620;29;20515;-81
2022/12/22 19:03:55;;;;;;;9.38;2.40;;;12.10;99.90;;;;;;4876037;29;20112;-81
2022/12/22 19:06:22;;;;;;;11.27;2.53;;;12.10;99.90;;;;;;4877829;29;20088;-82
2022/12/22 19:08:50;;;;;;;12.40;2.60;;;12.10;99.90;;;;;;4885086;29;20053;-81
2022/12/22 19:11:23;;;;;;;12.15;2.45;;;12.00;99.90;;;;;;4880397;29;20494;-80